sensor_id;sensor_type;location;lat;lon;timestamp;P1;durP1;ratioP1;P2;durP2;ratioP2
77868;SDS011;67231;59.144;37.934;2023-05-07T00:00:25;4.95;;;2.28;;
77868;SDS011;67231;59.144;37.934;2023-05-07T00:02:51;4.13;;;1.67;;
77868;SDS011;67231;59.144;37.934;2023-05-07T00:05:18;3.17;;;2.00;;
77868;SDS011;67231;59.144;37.934;2023-05-07T00:07:46;4.15;;;2.55;;
77868;SDS011;67231;59.144;37.934;2023-05-07T00:10:12;3.95;;;2.20;;
77868;SDS011;67231;59.144;37.934;2023-05-07T00:12:39;3.65;;;1.90;;
77868;SDS011;67231;59.144;37.934;2023-05-07T00:15:06;3.95;;;2.22;;
77868;SDS011;67231;59.144;37.934;2023-05-07T00:17:34;4.07;;;2.03;;
77868;SDS011;67231;59.144;37.934;2023-05-07T00:20:01;5.05;;;2.20;;
77868;SDS011;67231;59.144;37.934;2023-05-07T00:22:32;4.82;;;2.20;;
77868;SDS011;67231;59.144;37.934;2023-05-07T00:24:59;4.03;;;2.08;;
77868;SDS011;67231;59.144;37.934;2023-05-07T00:27:26;5.25;;;2.30;;
77868;SDS011;67231;59.144;37.934;2023-05-07T00:29:52;4.32;;;2.30;;
77868;SDS011;67231;59.144;37.934;2023-05-07T00:32:19;7.38;;;2.42;;
77868;SDS011;67231;59.144;37.934;2023-05-07T00:34:46;6.00;;;2.50;;
77868;SDS011;67231;59.144;37.934;2023-05-07T00:37:12;6.10;;;2.83;;
77868;SDS011;67231;59.144;37.934;2023-05-07T00:39:39;5.22;;;2.22;;
77868;SDS011;67231;59.144;37.934;2023-05-07T00:42:05;4.45;;;2.05;;
77868;SDS011;67231;59.144;37.934;2023-05-07T00:44:31;5.15;;;1.90;;
77868;SDS011;67231;59.144;37.934;2023-05-07T00:46:58;4.03;;;2.05;;
77868;SDS011;67231;59.144;37.934;2023-05-07T00:49:35;5.53;;;2.30;;
77868;SDS011;67231;59.144;37.934;2023-05-07T00:52:05;5.88;;;2.15;;
77868;SDS011;67231;59.144;37.934;2023-05-07T00:54:34;4.80;;;2.30;;
77868;SDS011;67231;59.144;37.934;2023-05-07T00:57:01;4.15;;;2.38;;
77868;SDS011;67231;59.144;37.934;2023-05-07T00:59:30;4.38;;;2.40;;
77868;SDS011;67231;59.144;37.934;2023-05-07T01:01:58;3.83;;;2.00;;
77868;SDS011;67231;59.144;37.934;2023-05-07T01:04:25;5.28;;;2.10;;
77868;SDS011;67231;59.144;37.934;2023-05-07T01:06:52;5.72;;;2.05;;
77868;SDS011;67231;59.144;37.934;2023-05-07T01:09:23;3.72;;;2.05;;
77868;SDS011;67231;59.144;37.934;2023-05-07T01:11:52;5.35;;;2.20;;
77868;SDS011;67231;59.144;37.934;2023-05-07T01:14:19;6.10;;;2.35;;
77868;SDS011;67231;59.144;37.934;2023-05-07T01:16:47;5.22;;;2.15;;
77868;SDS011;67231;59.144;37.934;2023-05-07T01:19:16;3.90;;;2.25;;
77868;SDS011;67231;59.144;37.934;2023-05-07T01:24:12;3.78;;;1.85;;
77868;SDS011;67231;59.144;37.934;2023-05-07T01:26:40;4.78;;;2.10;;
77868;SDS011;67231;59.144;37.934;2023-05-07T01:29:07;5.22;;;2.70;;
77868;SDS011;67231;59.144;37.934;2023-05-07T01:31:34;4.88;;;2.25;;
77868;SDS011;67231;59.144;37.934;2023-05-07T01:34:02;4.30;;;1.90;;
77868;SDS011;67231;59.144;37.934;2023-05-07T01:36:31;5.90;;;2.20;;
77868;SDS011;67231;59.144;37.934;2023-05-07T01:38:58;3.88;;;2.30;;
77868;SDS011;67231;59.144;37.934;2023-05-07T01:41:25;4.38;;;2.22;;
77868;SDS011;67231;59.144;37.934;2023-05-07T01:43:52;3.72;;;1.95;;
77868;SDS011;67231;59.144;37.934;2023-05-07T01:46:20;3.45;;;1.92;;
77868;SDS011;67231;59.144;37.934;2023-05-07T01:48:47;3.78;;;2.05;;
77868;SDS011;67231;59.144;37.934;2023-05-07T01:51:15;4.25;;;2.22;;
77868;SDS011;67231;59.144;37.934;2023-05-07T01:53:42;4.85;;;2.15;;
77868;SDS011;67231;59.144;37.934;2023-05-07T01:56:10;5.22;;;2.40;;
77868;SDS011;67231;59.144;37.934;2023-05-07T01:58:38;5.63;;;2.30;;
77868;SDS011;67231;59.144;37.934;2023-05-07T02:01:05;5.72;;;2.10;;
77868;SDS011;67231;59.144;37.934;2023-05-07T02:03:32;4.18;;;2.28;;
77868;SDS011;67231;59.144;37.934;2023-05-07T02:06:07;5.07;;;2.13;;
77868;SDS011;67231;59.144;37.934;2023-05-07T02:08:36;3.45;;;1.85;;
77868;SDS011;67231;59.144;37.934;2023-05-07T02:11:03;4.00;;;2.13;;
77868;SDS011;67231;59.144;37.934;2023-05-07T02:13:31;6.55;;;2.42;;
77868;SDS011;67231;59.144;37.934;2023-05-07T02:16:01;10.98;;;5.43;;
77868;SDS011;67231;59.144;37.934;2023-05-07T02:18:28;9.57;;;4.65;;
77868;SDS011;67231;59.144;37.934;2023-05-07T02:20:55;7.85;;;3.80;;
77868;SDS011;67231;59.144;37.934;2023-05-07T02:23:22;8.10;;;4.30;;
77868;SDS011;67231;59.144;37.934;2023-05-07T02:25:49;7.47;;;3.70;;
77868;SDS011;67231;59.144;37.934;2023-05-07T02:28:15;6.80;;;2.60;;
77868;SDS011;67231;59.144;37.934;2023-05-07T02:30:48;8.05;;;2.38;;
77868;SDS011;67231;59.144;37.934;2023-05-07T02:33:15;8.80;;;4.07;;
77868;SDS011;67231;59.144;37.934;2023-05-07T02:35:42;6.15;;;3.22;;
77868;SDS011;67231;59.144;37.934;2023-05-07T02:38:10;13.82;;;4.15;;
77868;SDS011;67231;59.144;37.934;2023-05-07T02:40:37;5.55;;;2.58;;
77868;SDS011;67231;59.144;37.934;2023-05-07T02:43:07;9.85;;;3.92;;
77868;SDS011;67231;59.144;37.934;2023-05-07T02:45:34;8.25;;;3.78;;
77868;SDS011;67231;59.144;37.934;2023-05-07T02:48:02;14.00;;;6.03;;
77868;SDS011;67231;59.144;37.934;2023-05-07T02:50:28;17.15;;;6.95;;
77868;SDS011;67231;59.144;37.934;2023-05-07T02:52:55;15.05;;;6.45;;
77868;SDS011;67231;59.144;37.934;2023-05-07T02:55:21;19.75;;;6.75;;
77868;SDS011;67231;59.144;37.934;2023-05-07T02:57:48;16.88;;;7.22;;
77868;SDS011;67231;59.144;37.934;2023-05-07T03:00:15;12.70;;;5.93;;
77868;SDS011;67231;59.144;37.934;2023-05-07T03:02:54;12.68;;;5.47;;
77868;SDS011;67231;59.144;37.934;2023-05-07T03:05:22;9.25;;;3.60;;
77868;SDS011;67231;59.144;37.934;2023-05-07T03:07:48;5.18;;;3.00;;
77868;SDS011;67231;59.144;37.934;2023-05-07T03:10:15;5.70;;;3.15;;
77868;SDS011;67231;59.144;37.934;2023-05-07T03:12:42;5.45;;;3.05;;
77868;SDS011;67231;59.144;37.934;2023-05-07T03:15:10;6.30;;;2.40;;
77868;SDS011;67231;59.144;37.934;2023-05-07T03:17:40;5.72;;;2.70;;
77868;SDS011;67231;59.144;37.934;2023-05-07T03:20:06;7.82;;;3.25;;
77868;SDS011;67231;59.144;37.934;2023-05-07T03:22:33;5.05;;;2.70;;
77868;SDS011;67231;59.144;37.934;2023-05-07T03:25:00;5.68;;;2.65;;
77868;SDS011;67231;59.144;37.934;2023-05-07T03:27:28;5.20;;;2.03;;
77868;SDS011;67231;59.144;37.934;2023-05-07T03:29:54;5.90;;;2.63;;
77868;SDS011;67231;59.144;37.934;2023-05-07T03:32:21;18.02;;;5.03;;
77868;SDS011;67231;59.144;37.934;2023-05-07T03:34:48;20.10;;;6.90;;
77868;SDS011;67231;59.144;37.934;2023-05-07T03:37:14;34.17;;;9.07;;
77868;SDS011;67231;59.144;37.934;2023-05-07T03:39:42;44.75;;;12.70;;
77868;SDS011;67231;59.144;37.934;2023-05-07T03:42:08;40.22;;;12.05;;
77868;SDS011;67231;59.144;37.934;2023-05-07T03:44:35;46.83;;;15.18;;
77868;SDS011;67231;59.144;37.934;2023-05-07T03:47:04;41.65;;;12.27;;
77868;SDS011;67231;59.144;37.934;2023-05-07T03:49:33;32.22;;;9.63;;
77868;SDS011;67231;59.144;37.934;2023-05-07T03:52:01;25.15;;;7.15;;
77868;SDS011;67231;59.144;37.934;2023-05-07T03:54:27;19.50;;;6.32;;
77868;SDS011;67231;59.144;37.934;2023-05-07T03:56:54;21.25;;;5.22;;
77868;SDS011;67231;59.144;37.934;2023-05-07T03:59:21;10.13;;;4.20;;
77868;SDS011;67231;59.144;37.934;2023-05-07T04:01:48;7.88;;;3.13;;
77868;SDS011;67231;59.144;37.934;2023-05-07T04:04:17;7.30;;;3.15;;
77868;SDS011;67231;59.144;37.934;2023-05-07T04:06:44;11.52;;;3.42;;
77868;SDS011;67231;59.144;37.934;2023-05-07T04:09:11;7.65;;;3.10;;
77868;SDS011;67231;59.144;37.934;2023-05-07T04:11:38;5.60;;;3.20;;
77868;SDS011;67231;59.144;37.934;2023-05-07T04:14:08;6.82;;;2.70;;
77868;SDS011;67231;59.144;37.934;2023-05-07T04:16:34;4.72;;;2.38;;
77868;SDS011;67231;59.144;37.934;2023-05-07T04:19:02;5.57;;;1.90;;
77868;SDS011;67231;59.144;37.934;2023-05-07T04:21:28;4.35;;;2.00;;
77868;SDS011;67231;59.144;37.934;2023-05-07T04:23:55;4.18;;;2.13;;
77868;SDS011;67231;59.144;37.934;2023-05-07T04:26:22;5.10;;;2.25;;
77868;SDS011;67231;59.144;37.934;2023-05-07T04:28:49;4.18;;;1.92;;
77868;SDS011;67231;59.144;37.934;2023-05-07T04:31:17;5.30;;;2.38;;
77868;SDS011;67231;59.144;37.934;2023-05-07T04:33:47;6.07;;;1.95;;
77868;SDS011;67231;59.144;37.934;2023-05-07T04:36:15;5.03;;;2.17;;
77868;SDS011;67231;59.144;37.934;2023-05-07T04:38:57;3.53;;;2.08;;
77868;SDS011;67231;59.144;37.934;2023-05-07T04:41:23;3.58;;;1.95;;
77868;SDS011;67231;59.144;37.934;2023-05-07T04:43:51;3.13;;;1.60;;
77868;SDS011;67231;59.144;37.934;2023-05-07T04:46:20;3.38;;;2.00;;
77868;SDS011;67231;59.144;37.934;2023-05-07T04:48:48;5.30;;;2.28;;
77868;SDS011;67231;59.144;37.934;2023-05-07T04:51:14;2.80;;;1.70;;
77868;SDS011;67231;59.144;37.934;2023-05-07T04:53:40;2.95;;;1.65;;
77868;SDS011;67231;59.144;37.934;2023-05-07T04:56:09;3.20;;;1.77;;
77868;SDS011;67231;59.144;37.934;2023-05-07T04:58:40;5.05;;;1.70;;
77868;SDS011;67231;59.144;37.934;2023-05-07T05:01:07;3.22;;;1.75;;
77868;SDS011;67231;59.144;37.934;2023-05-07T05:03:33;3.45;;;1.52;;
77868;SDS011;67231;59.144;37.934;2023-05-07T05:06:00;5.28;;;1.67;;
77868;SDS011;67231;59.144;37.934;2023-05-07T05:08:29;2.33;;;1.50;;
77868;SDS011;67231;59.144;37.934;2023-05-07T05:10:57;4.75;;;1.90;;
77868;SDS011;67231;59.144;37.934;2023-05-07T05:13:24;3.80;;;1.70;;
77868;SDS011;67231;59.144;37.934;2023-05-07T05:15:50;3.60;;;1.60;;
77868;SDS011;67231;59.144;37.934;2023-05-07T05:18:17;3.42;;;1.80;;
77868;SDS011;67231;59.144;37.934;2023-05-07T05:20:43;2.78;;;1.73;;
77868;SDS011;67231;59.144;37.934;2023-05-07T05:23:16;9.65;;;1.80;;
77868;SDS011;67231;59.144;37.934;2023-05-07T05:25:43;2.47;;;1.60;;
77868;SDS011;67231;59.144;37.934;2023-05-07T05:28:11;5.18;;;1.60;;
77868;SDS011;67231;59.144;37.934;2023-05-07T05:30:38;3.00;;;1.67;;
77868;SDS011;67231;59.144;37.934;2023-05-07T05:33:05;4.05;;;1.60;;
77868;SDS011;67231;59.144;37.934;2023-05-07T05:35:31;3.80;;;1.45;;
77868;SDS011;67231;59.144;37.934;2023-05-07T05:38:01;2.53;;;1.42;;
77868;SDS011;67231;59.144;37.934;2023-05-07T05:40:28;5.10;;;1.65;;
77868;SDS011;67231;59.144;37.934;2023-05-07T05:42:54;4.05;;;1.60;;
77868;SDS011;67231;59.144;37.934;2023-05-07T05:45:22;2.25;;;1.50;;
77868;SDS011;67231;59.144;37.934;2023-05-07T05:47:48;3.67;;;1.80;;
77868;SDS011;67231;59.144;37.934;2023-05-07T05:50:15;2.65;;;1.58;;
77868;SDS011;67231;59.144;37.934;2023-05-07T05:52:42;3.08;;;1.73;;
77868;SDS011;67231;59.144;37.934;2023-05-07T05:55:11;3.30;;;1.50;;
77868;SDS011;67231;59.144;37.934;2023-05-07T05:57:38;3.28;;;1.50;;
77868;SDS011;67231;59.144;37.934;2023-05-07T06:00:05;4.22;;;1.63;;
77868;SDS011;67231;59.144;37.934;2023-05-07T06:02:45;3.38;;;1.38;;
77868;SDS011;67231;59.144;37.934;2023-05-07T06:05:15;3.08;;;1.40;;
77868;SDS011;67231;59.144;37.934;2023-05-07T06:07:42;3.85;;;1.52;;
77868;SDS011;67231;59.144;37.934;2023-05-07T06:10:08;3.22;;;1.65;;
77868;SDS011;67231;59.144;37.934;2023-05-07T06:12:35;4.13;;;1.38;;
77868;SDS011;67231;59.144;37.934;2023-05-07T06:15:02;4.20;;;1.40;;
77868;SDS011;67231;59.144;37.934;2023-05-07T06:17:30;2.42;;;1.40;;
77868;SDS011;67231;59.144;37.934;2023-05-07T06:19:57;4.43;;;1.50;;
77868;SDS011;67231;59.144;37.934;2023-05-07T06:22:23;2.17;;;1.40;;
77868;SDS011;67231;59.144;37.934;2023-05-07T06:24:50;4.45;;;1.40;;
77868;SDS011;67231;59.144;37.934;2023-05-07T06:27:18;2.75;;;1.55;;
77868;SDS011;67231;59.144;37.934;2023-05-07T06:29:50;3.70;;;1.60;;
77868;SDS011;67231;59.144;37.934;2023-05-07T06:32:17;1.73;;;1.10;;
77868;SDS011;67231;59.144;37.934;2023-05-07T06:34:45;2.90;;;1.63;;
77868;SDS011;67231;59.144;37.934;2023-05-07T06:37:13;2.35;;;1.40;;
77868;SDS011;67231;59.144;37.934;2023-05-07T06:39:58;2.15;;;1.20;;
77868;SDS011;67231;59.144;37.934;2023-05-07T06:42:25;3.47;;;1.30;;
77868;SDS011;67231;59.144;37.934;2023-05-07T06:44:57;3.33;;;1.40;;
77868;SDS011;67231;59.144;37.934;2023-05-07T06:47:23;6.88;;;1.88;;
77868;SDS011;67231;59.144;37.934;2023-05-07T06:49:53;2.70;;;1.45;;
77868;SDS011;67231;59.144;37.934;2023-05-07T06:52:23;2.17;;;1.20;;
77868;SDS011;67231;59.144;37.934;2023-05-07T06:54:50;2.10;;;1.17;;
77868;SDS011;67231;59.144;37.934;2023-05-07T06:57:20;4.05;;;1.55;;
77868;SDS011;67231;59.144;37.934;2023-05-07T06:59:46;7.75;;;1.42;;
77868;SDS011;67231;59.144;37.934;2023-05-07T07:02:13;2.20;;;1.40;;
77868;SDS011;67231;59.144;37.934;2023-05-07T07:04:40;3.30;;;1.58;;
77868;SDS011;67231;59.144;37.934;2023-05-07T07:07:10;2.55;;;1.30;;
77868;SDS011;67231;59.144;37.934;2023-05-07T07:09:36;3.85;;;1.30;;
77868;SDS011;67231;59.144;37.934;2023-05-07T07:12:05;2.92;;;1.30;;
77868;SDS011;67231;59.144;37.934;2023-05-07T07:14:31;4.18;;;1.30;;
77868;SDS011;67231;59.144;37.934;2023-05-07T07:16:58;2.13;;;1.38;;
77868;SDS011;67231;59.144;37.934;2023-05-07T07:19:25;2.25;;;1.23;;
77868;SDS011;67231;59.144;37.934;2023-05-07T07:21:54;4.03;;;1.67;;
77868;SDS011;67231;59.144;37.934;2023-05-07T07:24:21;1.92;;;1.30;;
77868;SDS011;67231;59.144;37.934;2023-05-07T07:26:52;1.77;;;1.13;;
77868;SDS011;67231;59.144;37.934;2023-05-07T07:29:21;2.95;;;1.40;;
77868;SDS011;67231;59.144;37.934;2023-05-07T07:31:48;3.78;;;1.38;;
77868;SDS011;67231;59.144;37.934;2023-05-07T07:34:17;3.13;;;1.50;;
77868;SDS011;67231;59.144;37.934;2023-05-07T07:36:43;3.45;;;1.30;;
77868;SDS011;67231;59.144;37.934;2023-05-07T07:39:10;3.63;;;1.38;;
77868;SDS011;67231;59.144;37.934;2023-05-07T07:41:37;4.25;;;1.92;;
77868;SDS011;67231;59.144;37.934;2023-05-07T07:44:05;2.45;;;1.20;;
77868;SDS011;67231;59.144;37.934;2023-05-07T07:46:36;6.25;;;1.58;;
77868;SDS011;67231;59.144;37.934;2023-05-07T07:49:03;6.07;;;1.63;;
77868;SDS011;67231;59.144;37.934;2023-05-07T07:51:30;2.53;;;1.45;;
77868;SDS011;67231;59.144;37.934;2023-05-07T07:53:57;3.45;;;1.40;;
77868;SDS011;67231;59.144;37.934;2023-05-07T07:56:24;3.90;;;1.42;;
77868;SDS011;67231;59.144;37.934;2023-05-07T07:58:51;3.25;;;1.20;;
77868;SDS011;67231;59.144;37.934;2023-05-07T08:01:18;4.22;;;1.40;;
77868;SDS011;67231;59.144;37.934;2023-05-07T08:03:46;3.88;;;1.17;;
77868;SDS011;67231;59.144;37.934;2023-05-07T08:06:13;2.97;;;1.40;;
77868;SDS011;67231;59.144;37.934;2023-05-07T08:08:39;1.33;;;1.00;;
77868;SDS011;67231;59.144;37.934;2023-05-07T08:11:06;3.88;;;1.27;;
77868;SDS011;67231;59.144;37.934;2023-05-07T08:13:35;6.88;;;1.92;;
77868;SDS011;67231;59.144;37.934;2023-05-07T08:16:02;2.78;;;1.20;;
77868;SDS011;67231;59.144;37.934;2023-05-07T08:18:29;1.88;;;1.20;;
77868;SDS011;67231;59.144;37.934;2023-05-07T08:21:00;3.00;;;1.55;;
77868;SDS011;67231;59.144;37.934;2023-05-07T08:23:27;4.43;;;1.60;;
77868;SDS011;67231;59.144;37.934;2023-05-07T08:25:54;2.65;;;1.40;;
77868;SDS011;67231;59.144;37.934;2023-05-07T08:28:20;3.10;;;1.40;;
77868;SDS011;67231;59.144;37.934;2023-05-07T08:30:48;3.03;;;1.33;;
77868;SDS011;67231;59.144;37.934;2023-05-07T08:33:14;4.05;;;1.58;;
77868;SDS011;67231;59.144;37.934;2023-05-07T08:35:41;3.92;;;1.90;;
77868;SDS011;67231;59.144;37.934;2023-05-07T08:38:12;6.18;;;1.85;;
77868;SDS011;67231;59.144;37.934;2023-05-07T08:40:39;2.95;;;1.40;;
77868;SDS011;67231;59.144;37.934;2023-05-07T08:43:14;2.72;;;1.42;;
77868;SDS011;67231;59.144;37.934;2023-05-07T08:45:46;3.45;;;1.55;;
77868;SDS011;67231;59.144;37.934;2023-05-07T08:48:21;3.10;;;1.50;;
77868;SDS011;67231;59.144;37.934;2023-05-07T08:50:57;4.82;;;1.70;;
77868;SDS011;67231;59.144;37.934;2023-05-07T08:53:25;3.10;;;1.40;;
77868;SDS011;67231;59.144;37.934;2023-05-07T08:55:52;2.53;;;1.50;;
77868;SDS011;67231;59.144;37.934;2023-05-07T08:58:19;4.03;;;1.42;;
77868;SDS011;67231;59.144;37.934;2023-05-07T09:00:46;3.33;;;1.70;;
77868;SDS011;67231;59.144;37.934;2023-05-07T09:03:13;3.88;;;1.60;;
77868;SDS011;67231;59.144;37.934;2023-05-07T09:05:44;2.95;;;1.40;;
77868;SDS011;67231;59.144;37.934;2023-05-07T09:08:14;5.35;;;1.15;;
77868;SDS011;67231;59.144;37.934;2023-05-07T09:10:41;4.05;;;1.65;;
77868;SDS011;67231;59.144;37.934;2023-05-07T09:13:08;2.42;;;1.33;;
77868;SDS011;67231;59.144;37.934;2023-05-07T09:15:36;2.25;;;1.20;;
77868;SDS011;67231;59.144;37.934;2023-05-07T09:18:03;2.88;;;1.00;;
77868;SDS011;67231;59.144;37.934;2023-05-07T09:20:31;1.70;;;1.13;;
77868;SDS011;67231;59.144;37.934;2023-05-07T09:22:58;7.65;;;1.23;;
77868;SDS011;67231;59.144;37.934;2023-05-07T09:25:28;6.75;;;1.48;;
77868;SDS011;67231;59.144;37.934;2023-05-07T09:27:58;5.30;;;1.30;;
77868;SDS011;67231;59.144;37.934;2023-05-07T09:30:29;2.33;;;1.08;;
77868;SDS011;67231;59.144;37.934;2023-05-07T09:32:59;7.32;;;1.17;;
77868;SDS011;67231;59.144;37.934;2023-05-07T09:35:27;1.73;;;1.30;;
77868;SDS011;67231;59.144;37.934;2023-05-07T09:37:58;2.17;;;1.35;;
77868;SDS011;67231;59.144;37.934;2023-05-07T09:40:27;2.70;;;1.23;;
77868;SDS011;67231;59.144;37.934;2023-05-07T09:43:08;4.97;;;1.50;;
77868;SDS011;67231;59.144;37.934;2023-05-07T09:45:37;8.52;;;1.65;;
77868;SDS011;67231;59.144;37.934;2023-05-07T09:48:05;3.25;;;1.40;;
77868;SDS011;67231;59.144;37.934;2023-05-07T09:50:40;4.45;;;1.45;;
77868;SDS011;67231;59.144;37.934;2023-05-07T09:53:15;3.15;;;1.30;;
77868;SDS011;67231;59.144;37.934;2023-05-07T09:55:43;4.00;;;1.40;;
77868;SDS011;67231;59.144;37.934;2023-05-07T09:58:12;2.10;;;1.00;;
77868;SDS011;67231;59.144;37.934;2023-05-07T10:00:41;3.38;;;1.70;;
77868;SDS011;67231;59.144;37.934;2023-05-07T10:03:12;2.92;;;1.20;;
77868;SDS011;67231;59.144;37.934;2023-05-07T10:05:51;3.85;;;1.80;;
77868;SDS011;67231;59.144;37.934;2023-05-07T10:08:19;2.25;;;1.25;;
77868;SDS011;67231;59.144;37.934;2023-05-07T10:10:48;3.65;;;1.33;;
77868;SDS011;67231;59.144;37.934;2023-05-07T10:13:19;1.65;;;1.00;;
77868;SDS011;67231;59.144;37.934;2023-05-07T10:15:48;4.50;;;1.50;;
77868;SDS011;67231;59.144;37.934;2023-05-07T10:18:16;2.70;;;1.10;;
77868;SDS011;67231;59.144;37.934;2023-05-07T10:20:49;3.22;;;1.20;;
77868;SDS011;67231;59.144;37.934;2023-05-07T10:23:19;2.13;;;1.30;;
77868;SDS011;67231;59.144;37.934;2023-05-07T10:25:53;3.55;;;1.58;;
77868;SDS011;67231;59.144;37.934;2023-05-07T10:28:23;7.40;;;2.55;;
77868;SDS011;67231;59.144;37.934;2023-05-07T10:33:36;4.95;;;2.65;;
77868;SDS011;67231;59.144;37.934;2023-05-07T10:36:03;9.82;;;3.33;;
77868;SDS011;67231;59.144;37.934;2023-05-07T10:38:33;4.03;;;1.60;;
77868;SDS011;67231;59.144;37.934;2023-05-07T10:41:01;6.13;;;2.72;;
77868;SDS011;67231;59.144;37.934;2023-05-07T10:43:43;6.38;;;2.65;;
77868;SDS011;67231;59.144;37.934;2023-05-07T11:00:59;3.47;;;1.55;;
77868;SDS011;67231;59.144;37.934;2023-05-07T11:04:11;3.58;;;0.93;;
77868;SDS011;67231;59.144;37.934;2023-05-07T11:06:42;8.35;;;1.50;;
77868;SDS011;67231;59.144;37.934;2023-05-07T11:15:09;3.05;;;1.67;;
77868;SDS011;67231;59.144;37.934;2023-05-07T11:20:20;3.10;;;1.40;;
77868;SDS011;67231;59.144;37.934;2023-05-07T11:22:54;3.38;;;1.30;;
77868;SDS011;67231;59.144;37.934;2023-05-07T11:25:36;8.55;;;2.33;;
77868;SDS011;67231;59.144;37.934;2023-05-07T11:28:12;4.28;;;2.15;;
77868;SDS011;67231;59.144;37.934;2023-05-07T11:31:01;1.75;;;1.20;;
77868;SDS011;67231;59.144;37.934;2023-05-07T11:33:29;1.77;;;1.05;;
77868;SDS011;67231;59.144;37.934;2023-05-07T11:35:57;2.20;;;1.30;;
77868;SDS011;67231;59.144;37.934;2023-05-07T11:38:30;1.33;;;0.80;;
77868;SDS011;67231;59.144;37.934;2023-05-07T11:41:01;3.53;;;1.40;;
77868;SDS011;67231;59.144;37.934;2023-05-07T11:43:28;1.85;;;1.10;;
77868;SDS011;67231;59.144;37.934;2023-05-07T11:45:54;2.83;;;1.30;;
77868;SDS011;67231;59.144;37.934;2023-05-07T11:48:21;5.10;;;1.40;;
77868;SDS011;67231;59.144;37.934;2023-05-07T11:50:51;3.67;;;1.00;;
77868;SDS011;67231;59.144;37.934;2023-05-07T11:53:24;2.55;;;1.40;;
77868;SDS011;67231;59.144;37.934;2023-05-07T11:55:52;5.13;;;2.10;;
77868;SDS011;67231;59.144;37.934;2023-05-07T11:58:23;3.38;;;1.75;;
77868;SDS011;67231;59.144;37.934;2023-05-07T12:00:54;2.58;;;1.30;;
77868;SDS011;67231;59.144;37.934;2023-05-07T12:03:20;3.72;;;1.83;;
77868;SDS011;67231;59.144;37.934;2023-05-07T12:05:47;2.58;;;1.20;;
77868;SDS011;67231;59.144;37.934;2023-05-07T12:08:22;4.03;;;1.00;;
77868;SDS011;67231;59.144;37.934;2023-05-07T12:15:46;8.07;;;1.90;;
77868;SDS011;67231;59.144;37.934;2023-05-07T12:18:12;2.72;;;1.45;;
77868;SDS011;67231;59.144;37.934;2023-05-07T12:20:39;5.13;;;3.00;;
77868;SDS011;67231;59.144;37.934;2023-05-07T12:23:05;2.72;;;1.60;;
77868;SDS011;67231;59.144;37.934;2023-05-07T12:25:36;4.82;;;2.65;;
77868;SDS011;67231;59.144;37.934;2023-05-07T12:28:08;4.50;;;2.20;;
77868;SDS011;67231;59.144;37.934;2023-05-07T12:30:39;1.50;;;1.00;;
77868;SDS011;67231;59.144;37.934;2023-05-07T12:33:06;1.55;;;0.80;;
77868;SDS011;67231;59.144;37.934;2023-05-07T12:35:36;3.75;;;1.60;;
77868;SDS011;67231;59.144;37.934;2023-05-07T12:38:09;5.45;;;1.95;;
77868;SDS011;67231;59.144;37.934;2023-05-07T12:40:42;3.63;;;1.40;;
77868;SDS011;67231;59.144;37.934;2023-05-07T12:43:23;2.55;;;1.10;;
77868;SDS011;67231;59.144;37.934;2023-05-07T12:45:51;3.20;;;1.60;;
77868;SDS011;67231;59.144;37.934;2023-05-07T12:48:19;4.25;;;1.13;;
77868;SDS011;67231;59.144;37.934;2023-05-07T12:50:50;6.57;;;1.15;;
77868;SDS011;67231;59.144;37.934;2023-05-07T12:53:17;3.58;;;1.20;;
77868;SDS011;67231;59.144;37.934;2023-05-07T12:55:47;2.83;;;1.10;;
77868;SDS011;67231;59.144;37.934;2023-05-07T12:58:19;6.10;;;1.33;;
77868;SDS011;67231;59.144;37.934;2023-05-07T13:00:49;2.42;;;1.40;;
77868;SDS011;67231;59.144;37.934;2023-05-07T13:03:36;7.05;;;1.50;;
77868;SDS011;67231;59.144;37.934;2023-05-07T13:06:04;3.20;;;1.33;;
77868;SDS011;67231;59.144;37.934;2023-05-07T13:08:33;4.80;;;1.40;;
77868;SDS011;67231;59.144;37.934;2023-05-07T13:11:03;1.73;;;1.10;;
77868;SDS011;67231;59.144;37.934;2023-05-07T13:13:31;1.65;;;1.00;;
77868;SDS011;67231;59.144;37.934;2023-05-07T13:16:00;4.05;;;1.50;;
77868;SDS011;67231;59.144;37.934;2023-05-07T13:18:29;2.15;;;1.40;;
77868;SDS011;67231;59.144;37.934;2023-05-07T13:20:56;1.50;;;1.00;;
77868;SDS011;67231;59.144;37.934;2023-05-07T13:23:23;1.33;;;0.95;;
77868;SDS011;67231;59.144;37.934;2023-05-07T13:25:49;4.57;;;1.20;;
77868;SDS011;67231;59.144;37.934;2023-05-07T13:28:17;2.05;;;1.20;;
77868;SDS011;67231;59.144;37.934;2023-05-07T13:30:43;4.95;;;1.20;;
77868;SDS011;67231;59.144;37.934;2023-05-07T13:33:10;5.78;;;1.50;;
77868;SDS011;67231;59.144;37.934;2023-05-07T13:35:36;5.97;;;1.20;;
77868;SDS011;67231;59.144;37.934;2023-05-07T13:38:03;2.00;;;1.00;;
77868;SDS011;67231;59.144;37.934;2023-05-07T13:40:30;5.65;;;1.50;;
77868;SDS011;67231;59.144;37.934;2023-05-07T13:42:57;2.28;;;1.35;;
77868;SDS011;67231;59.144;37.934;2023-05-07T13:45:24;2.95;;;1.58;;
77868;SDS011;67231;59.144;37.934;2023-05-07T13:47:51;3.85;;;1.23;;
77868;SDS011;67231;59.144;37.934;2023-05-07T13:50:18;2.80;;;1.25;;
77868;SDS011;67231;59.144;37.934;2023-05-07T13:52:44;1.40;;;0.90;;
77868;SDS011;67231;59.144;37.934;2023-05-07T13:55:20;5.35;;;1.70;;
77868;SDS011;67231;59.144;37.934;2023-05-07T13:57:47;3.33;;;1.50;;
77868;SDS011;67231;59.144;37.934;2023-05-07T14:00:13;4.28;;;1.10;;
77868;SDS011;67231;59.144;37.934;2023-05-07T14:02:41;2.10;;;1.08;;
77868;SDS011;67231;59.144;37.934;2023-05-07T14:05:08;2.95;;;1.27;;
77868;SDS011;67231;59.144;37.934;2023-05-07T14:07:35;1.92;;;1.20;;
77868;SDS011;67231;59.144;37.934;2023-05-07T14:10:02;1.55;;;1.10;;
77868;SDS011;67231;59.144;37.934;2023-05-07T14:12:32;6.18;;;2.22;;
77868;SDS011;67231;59.144;37.934;2023-05-07T14:14:59;2.08;;;1.10;;
77868;SDS011;67231;59.144;37.934;2023-05-07T14:17:26;2.42;;;1.23;;
77868;SDS011;67231;59.144;37.934;2023-05-07T14:19:53;2.25;;;1.20;;
77868;SDS011;67231;59.144;37.934;2023-05-07T14:22:20;4.13;;;1.83;;
77868;SDS011;67231;59.144;37.934;2023-05-07T14:24:48;2.65;;;1.30;;
77868;SDS011;67231;59.144;37.934;2023-05-07T14:27:15;2.53;;;1.35;;
77868;SDS011;67231;59.144;37.934;2023-05-07T14:29:42;3.00;;;1.35;;
77868;SDS011;67231;59.144;37.934;2023-05-07T14:32:09;3.65;;;1.55;;
77868;SDS011;67231;59.144;37.934;2023-05-07T14:34:35;6.68;;;1.50;;
77868;SDS011;67231;59.144;37.934;2023-05-07T14:37:01;3.45;;;2.00;;
77868;SDS011;67231;59.144;37.934;2023-05-07T14:39:28;4.50;;;1.65;;
77868;SDS011;67231;59.144;37.934;2023-05-07T14:41:54;6.50;;;2.70;;
77868;SDS011;67231;59.144;37.934;2023-05-07T14:44:22;4.22;;;2.10;;
77868;SDS011;67231;59.144;37.934;2023-05-07T14:46:48;2.53;;;1.45;;
77868;SDS011;67231;59.144;37.934;2023-05-07T14:49:14;2.90;;;1.27;;
77868;SDS011;67231;59.144;37.934;2023-05-07T14:51:46;4.07;;;1.20;;
77868;SDS011;67231;59.144;37.934;2023-05-07T14:54:13;4.68;;;2.63;;
77868;SDS011;67231;59.144;37.934;2023-05-07T14:56:40;5.35;;;2.92;;
77868;SDS011;67231;59.144;37.934;2023-05-07T14:59:07;10.55;;;3.47;;
77868;SDS011;67231;59.144;37.934;2023-05-07T15:01:35;3.67;;;2.10;;
77868;SDS011;67231;59.144;37.934;2023-05-07T15:04:05;7.80;;;2.33;;
77868;SDS011;67231;59.144;37.934;2023-05-07T15:06:31;3.88;;;2.20;;
77868;SDS011;67231;59.144;37.934;2023-05-07T15:08:59;2.22;;;1.38;;
77868;SDS011;67231;59.144;37.934;2023-05-07T15:11:25;3.75;;;1.80;;
77868;SDS011;67231;59.144;37.934;2023-05-07T15:13:51;3.50;;;1.90;;